Utica, Nebraska
Current Conditions -  °F | °C
As of 7:15 PM on Wednesday 22 Oct 2014 (Local Time) from KJYR Reporting Station
Heavy Rain Heavy Rain  
Wind Chill: 63°   Ceiling: 200
Heat Index: 63°   Visibility: 1.7mi
Dew Point: 59°   Wind: 18mph
Humidity: 88%   Direction: 180°S
Pressure: 30.03"   Gusts: 22mph
Location:  40.9°N, 97.35°W
Report Text: KJYR 230015Z AUTO 18016G19KT 1 3/4SM +RA BKN002 OVC009 17/15 A3003 RMK AO2 P0036
Loading
Personal Weather Stations






























Interactive Weather Map
Tropical Storm Tracking
New forecast layout! Learn more

10-Day Weather Forecast

Advertisements
Track Severe Weather on mobile